createdAt,value
2023-04-22T00:00:14.231Z,1.69
2023-04-22T00:02:42.377Z,1.63
2023-04-22T00:05:14.280Z,1.55
2023-04-22T00:07:43.960Z,1.63
2023-04-22T00:10:13.335Z,1.67
2023-04-22T00:12:41.466Z,1.42
2023-04-22T00:15:10.927Z,1.44
2023-04-22T00:17:39.063Z,1.44
2023-04-22T00:20:10.933Z,1.41
2023-04-22T00:22:38.997Z,1.29
2023-04-22T00:25:07.852Z,1.28
2023-04-22T00:27:37.765Z,1.30
2023-04-22T00:30:06.862Z,1.43
2023-04-22T00:32:36.432Z,1.37
2023-04-22T00:35:04.650Z,1.28
2023-04-22T00:37:32.752Z,1.15
2023-04-22T00:40:00.736Z,1.21
2023-04-22T00:42:29.269Z,1.19
2023-04-22T00:45:01.911Z,1.08
2023-04-22T00:47:32.415Z,0.74
2023-04-22T00:50:00.950Z,1.07
2023-04-22T00:52:29.064Z,1.06
2023-04-22T00:54:57.330Z,1.08
2023-04-22T00:57:25.759Z,1.00
2023-04-22T00:59:55.977Z,1.15
2023-04-22T01:02:26.224Z,0.96
2023-04-22T01:04:55.285Z,0.89
2023-04-22T01:07:23.582Z,0.83
2023-04-22T01:09:53.995Z,0.89
2023-04-22T01:12:21.672Z,0.88
2023-04-22T01:14:49.879Z,0.85
2023-04-22T01:17:19.533Z,0.63
2023-04-22T01:19:49.285Z,0.70
2023-04-22T01:22:18.308Z,0.77
2023-04-22T01:24:48.020Z,0.79
2023-04-22T01:27:16.004Z,0.71
2023-04-22T01:29:44.284Z,0.74
2023-04-22T01:32:12.587Z,0.32
2023-04-22T01:34:40.630Z,0.51
2023-04-22T01:37:08.750Z,0.48
2023-04-22T01:39:37.052Z,0.50
2023-04-22T01:42:06.979Z,0.55
2023-04-22T01:44:34.906Z,0.56
2023-04-22T01:47:03.003Z,0.20
2023-04-22T01:49:30.977Z,0.45
2023-04-22T01:51:59.356Z,0.40
2023-04-22T01:54:27.642Z,0.40
2023-04-22T01:56:58.559Z,0.45
2023-04-22T01:59:28.198Z,0.48
2023-04-22T02:01:56.351Z,0.43
2023-04-22T02:04:24.524Z,0.26
2023-04-22T02:06:52.551Z,0.39
2023-04-22T02:09:20.685Z,0.39
2023-04-22T02:11:48.684Z,0.37
2023-04-22T02:14:16.796Z,0.27
2023-04-22T02:16:46.173Z,0.21
2023-04-22T02:19:14.093Z,0.27
2023-04-22T02:21:42.453Z,0.30
2023-04-22T02:24:10.882Z,0.23
2023-04-22T02:26:38.811Z,0.16
2023-04-22T02:29:07.153Z,0.14
2023-04-22T02:31:35.211Z,0.08
2023-04-22T02:34:04.611Z,0.09
2023-04-22T02:36:34.703Z,0.09
2023-04-22T02:39:03.529Z,0.06
2023-04-22T02:41:31.461Z,-0.05
2023-04-22T02:43:59.804Z,0.09
2023-04-22T02:46:27.851Z,0.08
2023-04-22T02:48:55.867Z,0.14
2023-04-22T02:51:25.707Z,0.05
2023-04-22T02:53:54.437Z,-0.05
2023-04-22T02:56:22.531Z,-0.02
2023-04-22T02:58:50.720Z,-0.05
2023-04-22T03:01:18.842Z,-0.08
2023-04-22T03:03:47.030Z,-0.08
2023-04-22T03:06:15.352Z,0.00
2023-04-22T03:08:44.650Z,-0.06
2023-04-22T03:11:13.898Z,-0.05
2023-04-22T03:13:42.215Z,-0.08
2023-04-22T03:16:10.412Z,-0.06
2023-04-22T03:18:38.455Z,-0.05
2023-04-22T03:21:07.443Z,0.10
2023-04-22T03:23:35.721Z,-0.04
2023-04-22T03:26:05.136Z,-0.02
2023-04-22T03:28:33.417Z,-0.05
2023-04-22T03:31:01.355Z,-0.03
2023-04-22T03:33:34.081Z,0.17
2023-04-22T03:36:01.996Z,0.18
2023-04-22T03:38:29.995Z,0.56
2023-04-22T03:40:58.219Z,0.50
2023-04-22T03:43:27.539Z,0.37
2023-04-22T03:45:57.741Z,0.33
2023-04-22T03:48:25.844Z,0.24
2023-04-22T03:50:53.712Z,0.18
2023-04-22T03:53:23.227Z,0.38
2023-04-22T03:55:51.544Z,0.38
2023-04-22T03:58:19.993Z,0.38
2023-04-22T04:00:49.329Z,0.42
2023-04-22T04:03:17.717Z,0.44
2023-04-22T04:05:46.101Z,0.72
2023-04-22T04:08:14.069Z,0.78
2023-04-22T04:10:43.520Z,0.86
2023-04-22T04:13:11.559Z,0.95
2023-04-22T04:15:39.846Z,1.07
2023-04-22T04:18:09.793Z,1.18
2023-04-22T04:20:37.797Z,1.25
2023-04-22T04:23:05.972Z,1.35
2023-04-22T04:25:37.839Z,1.57
2023-04-22T04:28:09.377Z,1.58
2023-04-22T04:30:37.579Z,1.73
2023-04-22T04:33:07.405Z,1.63
2023-04-22T04:35:38.468Z,2.17
2023-04-22T04:38:07.274Z,2.34
2023-04-22T04:40:36.227Z,2.36
2023-04-22T04:43:08.413Z,2.69
2023-04-22T04:45:37.840Z,2.94
2023-04-22T04:48:07.123Z,3.00
2023-04-22T04:50:36.677Z,3.13
2023-04-22T04:53:04.714Z,3.28
2023-04-22T04:55:33.030Z,3.47
2023-04-22T04:58:01.118Z,3.71
2023-04-22T05:00:29.212Z,4.06
2023-04-22T05:02:57.305Z,4.89
2023-04-22T05:05:25.383Z,6.18
2023-04-22T05:07:54.798Z,6.98
2023-04-22T05:10:22.932Z,8.25
2023-04-22T05:12:51.286Z,8.88
2023-04-22T05:15:19.320Z,9.45
2023-04-22T05:17:47.448Z,9.96
2023-04-22T05:20:15.498Z,10.23
2023-04-22T05:22:45.020Z,10.32
2023-04-22T05:25:14.401Z,10.17
2023-04-22T05:27:42.588Z,9.79
2023-04-22T05:30:11.585Z,9.18
2023-04-22T05:32:39.763Z,8.83
2023-04-22T05:35:08.616Z,8.61
2023-04-22T05:37:36.859Z,8.49
2023-04-22T05:40:05.276Z,8.55
2023-04-22T05:42:34.577Z,8.65
2023-04-22T05:45:02.568Z,8.75
2023-04-22T05:47:31.308Z,9.01
2023-04-22T05:49:59.301Z,9.17
2023-04-22T05:52:27.320Z,9.53
2023-04-22T05:54:55.360Z,9.56
2023-04-22T05:57:23.557Z,9.82
2023-04-22T05:59:52.953Z,9.89
2023-04-22T06:02:24.026Z,10.03
2023-04-22T06:04:52.172Z,10.07
2023-04-22T06:07:20.393Z,10.19
2023-04-22T06:09:57.124Z,10.25
2023-04-22T06:12:30.417Z,10.50
2023-04-22T06:14:59.803Z,10.58
2023-04-22T06:17:28.192Z,10.83
2023-04-22T06:19:56.387Z,10.74
2023-04-22T06:22:24.412Z,10.85
2023-04-22T06:24:52.462Z,10.85
2023-04-22T06:27:20.643Z,11.34
2023-04-22T06:29:48.660Z,11.34
2023-04-22T06:32:17.910Z,11.58
2023-04-22T06:34:46.019Z,11.39
2023-04-22T06:37:13.998Z,11.82
2023-04-22T06:39:42.227Z,11.81
2023-04-22T06:42:10.654Z,12.14
2023-04-22T06:44:38.632Z,12.39
2023-04-22T06:47:06.724Z,12.60
2023-04-22T06:49:38.548Z,12.55
2023-04-22T06:52:06.892Z,12.46
2023-04-22T06:54:34.965Z,12.61
2023-04-22T06:57:03.451Z,12.76
2023-04-22T06:59:31.528Z,12.97
2023-04-22T07:02:01.877Z,13.15
2023-04-22T07:04:31.807Z,12.91
2023-04-22T07:07:01.433Z,13.12
2023-04-22T07:09:29.600Z,13.39
2023-04-22T07:11:58.078Z,13.43
2023-04-22T07:14:27.267Z,13.28
2023-04-22T07:16:55.553Z,13.52
2023-04-22T07:19:23.606Z,13.89
2023-04-22T07:21:51.564Z,13.99
2023-04-22T07:24:21.112Z,14.10
2023-04-22T07:26:49.073Z,14.53
2023-04-22T07:29:16.984Z,14.68
2023-04-22T07:31:48.035Z,14.55
2023-04-22T07:34:17.528Z,14.36
2023-04-22T07:36:48.452Z,14.89
2023-04-22T07:39:16.408Z,14.87
2023-04-22T07:41:45.764Z,15.13
2023-04-22T07:44:18.566Z,15.09
2023-04-22T07:46:46.602Z,15.46
2023-04-22T07:49:15.477Z,15.45
2023-04-22T07:51:43.573Z,15.56
2023-04-22T07:54:14.170Z,15.51
2023-04-22T07:56:42.352Z,15.62
2023-04-22T07:59:11.681Z,16.08
2023-04-22T08:01:39.835Z,16.34
2023-04-22T08:04:08.275Z,16.13
2023-04-22T08:06:36.401Z,15.97
2023-04-22T08:09:04.579Z,16.47
2023-04-22T08:11:32.588Z,16.83
2023-04-22T08:14:00.777Z,17.04
2023-04-22T08:16:30.452Z,16.96
2023-04-22T08:18:58.479Z,16.91
2023-04-22T08:21:27.409Z,17.10
2023-04-22T08:23:55.492Z,17.27
2023-04-22T08:26:23.731Z,17.33
2023-04-22T08:28:51.713Z,17.20
2023-04-22T08:31:19.806Z,17.72
2023-04-22T08:33:50.700Z,17.90
2023-04-22T08:36:18.886Z,17.31
2023-04-22T08:38:49.516Z,17.28
2023-04-22T08:41:19.683Z,17.12
2023-04-22T08:43:49.306Z,17.83
2023-04-22T08:46:20.996Z,18.16
2023-04-22T08:48:52.120Z,18.15
2023-04-22T08:51:20.075Z,17.96
2023-04-22T08:53:48.605Z,17.99
2023-04-22T08:56:16.925Z,17.96
2023-04-22T08:58:45.301Z,18.19
2023-04-22T09:01:14.543Z,18.41
2023-04-22T09:03:43.201Z,18.70
2023-04-22T09:06:12.902Z,18.25
2023-04-22T09:08:41.005Z,18.35
2023-04-22T09:11:09.847Z,18.18
2023-04-22T09:13:38.897Z,18.72
2023-04-22T09:16:07.407Z,18.04
2023-04-22T09:18:42.036Z,18.43
2023-04-22T09:21:10.982Z,18.83
2023-04-22T09:23:48.195Z,18.57
2023-04-22T09:26:18.286Z,18.79
2023-04-22T09:28:53.875Z,18.89
2023-04-22T09:31:22.949Z,19.19
2023-04-22T09:33:53.589Z,19.24
2023-04-22T09:36:24.281Z,19.36
2023-04-22T09:38:57.814Z,19.73
2023-04-22T09:41:29.687Z,20.12
2023-04-22T09:43:58.357Z,20.02
2023-04-22T09:46:27.485Z,19.94
2023-04-22T09:48:57.286Z,19.41
2023-04-22T09:51:25.532Z,19.27
2023-04-22T09:54:06.455Z,19.55
2023-04-22T09:56:48.277Z,19.17
2023-04-22T09:59:24.329Z,19.25
2023-04-22T10:01:53.776Z,18.61
2023-04-22T10:04:25.552Z,18.40
2023-04-22T10:06:54.891Z,18.43
2023-04-22T10:09:26.559Z,18.40
2023-04-22T10:11:58.234Z,19.02
2023-04-22T10:14:26.802Z,19.34
2023-04-22T10:16:59.280Z,19.34
2023-04-22T10:19:28.536Z,19.51
2023-04-22T10:21:58.951Z,19.60
2023-04-22T10:24:29.910Z,19.68
2023-04-22T10:26:59.929Z,19.40
2023-04-22T10:29:36.170Z,19.93
2023-04-22T10:32:10.239Z,19.83
2023-04-22T10:34:39.486Z,19.65
2023-04-22T10:37:09.034Z,19.81
2023-04-22T10:39:39.699Z,20.09
2023-04-22T10:42:11.323Z,19.84
2023-04-22T10:44:50.425Z,19.41
2023-04-22T10:47:29.619Z,19.57
2023-04-22T10:50:19.620Z,20.02
2023-04-22T10:52:50.409Z,20.57
2023-04-22T10:55:21.405Z,21.02
2023-04-22T10:57:51.048Z,21.39
2023-04-22T11:00:41.866Z,20.78
2023-04-22T11:03:18.168Z,20.18
2023-04-22T11:05:47.058Z,19.91
2023-04-22T11:08:20.608Z,19.63
2023-04-22T11:10:51.625Z,19.77
2023-04-22T11:13:21.562Z,19.82
2023-04-22T11:15:51.203Z,20.12
2023-04-22T11:18:21.304Z,20.30
2023-04-22T11:20:50.767Z,20.58
2023-04-22T11:23:21.305Z,20.45
2023-04-22T11:25:55.864Z,21.00
2023-04-22T11:28:24.022Z,21.03
2023-04-22T11:30:52.629Z,20.76
2023-04-22T11:33:21.568Z,20.33
2023-04-22T11:35:51.752Z,20.98
2023-04-22T11:38:19.570Z,21.28
2023-04-22T11:40:48.195Z,21.71
2023-04-22T11:43:18.915Z,21.75
2023-04-22T11:45:46.653Z,21.91
2023-04-22T11:48:19.564Z,21.41
2023-04-22T11:50:48.347Z,21.22
2023-04-22T11:53:17.691Z,21.27
2023-04-22T11:55:48.012Z,21.44
2023-04-22T11:58:19.545Z,21.38
2023-04-22T12:00:49.688Z,21.61
2023-04-22T12:03:19.267Z,21.59
2023-04-22T12:05:48.901Z,21.30
2023-04-22T12:08:18.972Z,20.67
2023-04-22T12:10:47.360Z,20.05
2023-04-22T12:13:24.387Z,20.49
2023-04-22T12:15:56.560Z,20.34
2023-04-22T12:18:31.587Z,20.08
2023-04-22T12:21:03.498Z,20.85
2023-04-22T12:23:31.943Z,20.48
2023-04-22T12:25:59.921Z,21.24
2023-04-22T12:28:29.272Z,21.33
2023-04-22T12:30:57.253Z,21.27
2023-04-22T12:33:25.416Z,21.31
2023-04-22T12:35:53.661Z,21.02
2023-04-22T12:38:21.661Z,20.57
2023-04-22T12:40:49.712Z,20.67
2023-04-22T12:43:17.966Z,20.94
2023-04-22T12:45:47.652Z,21.11
2023-04-22T12:48:15.911Z,21.16
2023-04-22T12:50:43.877Z,20.65
2023-04-22T12:53:12.206Z,20.69
2023-04-22T12:55:41.132Z,20.92
2023-04-22T12:58:09.245Z,21.51
2023-04-22T13:00:37.286Z,22.30
2023-04-22T13:03:06.837Z,22.56
2023-04-22T13:05:34.962Z,21.61
2023-04-22T13:08:07.066Z,21.85
2023-04-22T13:10:36.238Z,21.93
2023-04-22T13:13:17.811Z,21.88
2023-04-22T13:15:46.421Z,21.47
2023-04-22T13:18:16.568Z,22.21
2023-04-22T13:20:44.337Z,22.03
2023-04-22T13:23:13.387Z,22.34
2023-04-22T13:25:41.580Z,21.62
2023-04-22T13:28:11.456Z,22.00
2023-04-22T13:30:39.470Z,21.70
2023-04-22T13:33:07.738Z,21.60
2023-04-22T13:35:37.244Z,22.00
2023-04-22T13:38:05.206Z,22.29
2023-04-22T13:40:33.325Z,22.57
2023-04-22T13:43:01.305Z,22.98
2023-04-22T13:45:29.431Z,22.37
2023-04-22T13:47:57.608Z,22.58
2023-04-22T13:50:25.611Z,22.43
2023-04-22T13:52:55.209Z,22.64
2023-04-22T13:55:23.274Z,22.40
2023-04-22T13:57:52.535Z,22.52
2023-04-22T14:00:21.061Z,22.32
2023-04-22T14:02:49.839Z,22.68
2023-04-22T14:05:18.128Z,22.70
2023-04-22T14:07:46.719Z,22.05
2023-04-22T14:10:17.826Z,21.97
2023-04-22T14:12:46.041Z,21.51
2023-04-22T14:15:14.036Z,21.65
2023-04-22T14:17:42.365Z,21.83
2023-04-22T14:20:11.689Z,21.97
2023-04-22T14:22:39.580Z,21.69
2023-04-22T14:25:08.776Z,22.33
2023-04-22T14:27:38.253Z,21.66
2023-04-22T14:30:08.545Z,22.19
2023-04-22T14:32:37.346Z,21.71
2023-04-22T14:35:05.821Z,21.40
2023-04-22T14:37:34.017Z,21.48
2023-04-22T14:40:01.928Z,21.81
2023-04-22T14:42:29.840Z,21.62
2023-04-22T14:44:59.483Z,22.03
2023-04-22T14:47:27.513Z,22.48
2023-04-22T14:49:55.813Z,21.98
2023-04-22T14:52:23.905Z,21.78
2023-04-22T14:54:52.183Z,21.82
2023-04-22T14:57:20.258Z,21.69
2023-04-22T14:59:48.221Z,21.73
2023-04-22T15:02:18.063Z,21.30
2023-04-22T15:04:46.650Z,21.06
2023-04-22T15:07:14.744Z,21.32
2023-04-22T15:09:43.092Z,21.58
2023-04-22T15:12:14.219Z,21.22
2023-04-22T15:14:42.304Z,20.98
2023-04-22T15:17:10.524Z,20.82
2023-04-22T15:19:40.215Z,20.88
2023-04-22T15:22:08.533Z,20.18
2023-04-22T15:24:36.802Z,20.48
2023-04-22T15:27:04.832Z,20.40
2023-04-22T15:29:32.848Z,20.54
2023-04-22T15:32:02.212Z,20.62
2023-04-22T15:34:30.216Z,20.81
2023-04-22T15:36:59.621Z,21.14
2023-04-22T15:39:27.734Z,20.76
2023-04-22T15:41:55.810Z,20.87
2023-04-22T15:44:25.464Z,20.48
2023-04-22T15:46:54.053Z,19.73
2023-04-22T15:49:21.983Z,19.52
2023-04-22T15:51:50.096Z,19.50
2023-04-22T15:54:19.762Z,19.26
2023-04-22T15:56:47.915Z,19.14
2023-04-22T15:59:15.881Z,19.22
2023-04-22T16:01:46.026Z,19.07
2023-04-22T16:04:14.775Z,19.38
2023-04-22T16:06:46.600Z,20.02
2023-04-22T16:09:15.963Z,20.24
2023-04-22T16:11:45.273Z,20.28
2023-04-22T16:14:13.295Z,20.07
2023-04-22T16:16:42.323Z,20.04
2023-04-22T16:19:11.036Z,21.32
2023-04-22T16:21:39.149Z,21.80
2023-04-22T16:24:07.580Z,22.00
2023-04-22T16:26:35.519Z,21.55
2023-04-22T16:29:05.440Z,22.02
2023-04-22T16:31:33.542Z,22.05
2023-04-22T16:34:02.889Z,21.82
2023-04-22T16:36:34.123Z,21.59
2023-04-22T16:39:02.596Z,21.14
2023-04-22T16:41:31.160Z,20.81
2023-04-22T16:43:59.964Z,19.77
2023-04-22T16:46:29.410Z,18.80
2023-04-22T16:48:57.379Z,18.32
2023-04-22T16:51:25.575Z,17.85
2023-04-22T16:53:53.576Z,17.52
2023-04-22T16:56:23.931Z,17.39
2023-04-22T16:58:52.234Z,17.20
2023-04-22T17:01:20.316Z,17.02
2023-04-22T17:03:49.851Z,16.77
2023-04-22T17:06:18.190Z,16.79
2023-04-22T17:08:46.113Z,16.55
2023-04-22T17:11:14.033Z,16.37
2023-04-22T17:13:42.137Z,16.12
2023-04-22T17:16:11.030Z,16.04
2023-04-22T17:18:39.069Z,16.04
2023-04-22T17:21:08.502Z,15.76
2023-04-22T17:23:36.734Z,15.27
2023-04-22T17:26:04.665Z,15.31
2023-04-22T17:28:32.690Z,15.36
2023-04-22T17:31:00.694Z,15.24
2023-04-22T17:33:29.311Z,15.08
2023-04-22T17:35:57.690Z,14.90
2023-04-22T17:38:27.111Z,14.72
2023-04-22T17:40:55.029Z,14.83
2023-04-22T17:43:23.110Z,14.70
2023-04-22T17:45:51.115Z,14.49
2023-04-22T17:48:19.128Z,14.13
2023-04-22T17:50:47.043Z,14.17
2023-04-22T17:53:15.176Z,14.17
2023-04-22T17:55:44.586Z,14.17
2023-04-22T17:58:13.229Z,13.79
2023-04-22T18:00:41.560Z,13.87
2023-04-22T18:03:09.878Z,13.56
2023-04-22T18:05:43.117Z,13.49
2023-04-22T18:08:11.882Z,13.37
2023-04-22T18:10:40.417Z,13.39
2023-04-22T18:13:09.914Z,13.34
2023-04-22T18:15:37.955Z,13.33
2023-04-22T18:18:06.240Z,13.40
2023-04-22T18:20:35.226Z,13.16
2023-04-22T18:23:03.304Z,12.69
2023-04-22T18:25:31.312Z,12.86
2023-04-22T18:27:59.509Z,12.89
2023-04-22T18:30:30.788Z,13.02
2023-04-22T18:32:58.991Z,12.84
2023-04-22T18:35:27.481Z,12.77
2023-04-22T18:37:55.392Z,12.32
2023-04-22T18:40:23.734Z,12.47
2023-04-22T18:42:51.956Z,12.57
2023-04-22T18:45:22.847Z,12.34
2023-04-22T18:47:52.896Z,12.40
2023-04-22T18:50:22.455Z,12.46
2023-04-22T18:52:50.407Z,12.14
2023-04-22T18:55:18.438Z,12.12
2023-04-22T18:57:46.526Z,12.17
2023-04-22T19:00:16.397Z,11.77
2023-04-22T19:02:46.008Z,11.72
2023-04-22T19:05:15.537Z,11.64
2023-04-22T19:07:45.201Z,11.74
2023-04-22T19:10:13.888Z,12.05
2023-04-22T19:12:41.836Z,11.76
2023-04-22T19:15:10.896Z,11.57
2023-04-22T19:17:39.316Z,11.53
2023-04-22T19:20:08.641Z,11.41
2023-04-22T19:22:37.962Z,11.51
2023-04-22T19:25:07.135Z,11.31
2023-04-22T19:27:35.130Z,11.59
2023-04-22T19:30:03.138Z,11.03
2023-04-22T19:32:31.463Z,11.09
2023-04-22T19:35:01.024Z,10.96
2023-04-22T19:37:30.402Z,11.03
2023-04-22T19:40:02.389Z,10.98
2023-04-22T19:42:30.588Z,11.25
2023-04-22T19:44:59.478Z,10.78
2023-04-22T19:47:27.964Z,11.10
2023-04-22T19:49:56.493Z,10.72
2023-04-22T19:52:25.857Z,11.00
2023-04-22T19:54:58.943Z,10.83
2023-04-22T19:57:28.371Z,10.56
2023-04-22T19:59:57.080Z,10.54
2023-04-22T20:02:25.727Z,10.66
2023-04-22T20:04:54.023Z,10.77
2023-04-22T20:07:22.676Z,10.79
2023-04-22T20:09:52.155Z,10.84
2023-04-22T20:12:20.337Z,10.80
2023-04-22T20:14:52.054Z,10.27
2023-04-22T20:17:20.518Z,10.01
2023-04-22T20:19:50.448Z,9.75
2023-04-22T20:22:19.532Z,10.05
2023-04-22T20:24:48.867Z,10.50
2023-04-22T20:27:17.832Z,10.28
2023-04-22T20:29:46.610Z,9.90
2023-04-22T20:32:16.800Z,10.05
2023-04-22T20:34:45.244Z,9.71
2023-04-22T20:37:13.893Z,9.33
2023-04-22T20:39:44.557Z,9.59
2023-04-22T20:42:13.176Z,9.78
2023-04-22T20:44:41.396Z,9.87
2023-04-22T20:47:09.986Z,9.47
2023-04-22T20:49:40.567Z,9.23
2023-04-22T20:52:09.438Z,9.34
2023-04-22T20:54:37.613Z,9.29
2023-04-22T20:57:05.971Z,9.24
2023-04-22T20:59:34.360Z,9.00
2023-04-22T21:02:06.681Z,8.57
2023-04-22T21:04:36.363Z,8.90
2023-04-22T21:07:07.382Z,8.82
2023-04-22T21:09:37.755Z,8.46
2023-04-22T21:12:06.446Z,8.83
2023-04-22T21:14:34.967Z,9.22
2023-04-22T21:17:05.909Z,9.19
2023-04-22T21:19:34.823Z,8.90
2023-04-22T21:22:06.683Z,8.64
2023-04-22T21:24:36.022Z,8.19
2023-04-22T21:27:04.426Z,7.79
2023-04-22T21:29:33.051Z,7.52
2023-04-22T21:32:08.732Z,7.73
2023-04-22T21:34:37.899Z,7.47
2023-04-22T21:37:08.458Z,7.72
2023-04-22T21:39:36.526Z,7.63
2023-04-22T21:42:08.607Z,7.06
2023-04-22T21:44:37.566Z,7.48
2023-04-22T21:47:06.485Z,7.20
2023-04-22T21:49:34.743Z,7.09
2023-04-22T21:52:02.607Z,7.11
2023-04-22T21:54:32.220Z,7.27
2023-04-22T21:57:01.381Z,7.21
2023-04-22T21:59:29.385Z,6.97
2023-04-22T22:01:57.557Z,6.75
2023-04-22T22:04:25.832Z,6.59
2023-04-22T22:06:53.903Z,6.44
2023-04-22T22:09:22.611Z,6.12
2023-04-22T22:11:52.102Z,6.23
2023-04-22T22:14:20.015Z,5.99
2023-04-22T22:16:49.951Z,5.91
2023-04-22T22:19:17.983Z,5.79
2023-04-22T22:21:45.869Z,5.86
2023-04-22T22:24:13.917Z,5.83
2023-04-22T22:26:43.025Z,5.67
2023-04-22T22:29:16.279Z,5.66
2023-04-22T22:31:44.911Z,5.50
2023-04-22T22:34:12.928Z,5.18
2023-04-22T22:36:41.295Z,5.42
2023-04-22T22:39:10.540Z,5.59
2023-04-22T22:41:38.444Z,5.92
2023-04-22T22:44:06.419Z,5.78
2023-04-22T22:46:36.208Z,5.79
2023-04-22T22:49:04.583Z,5.71
2023-04-22T22:51:32.883Z,5.44
2023-04-22T22:54:00.948Z,5.56
2023-04-22T22:56:29.397Z,5.79
2023-04-22T22:58:57.499Z,5.59
2023-04-22T23:01:25.859Z,5.36
2023-04-22T23:03:55.468Z,4.97
2023-04-22T23:06:23.744Z,4.89
2023-04-22T23:08:51.896Z,4.66
2023-04-22T23:11:19.871Z,4.73
2023-04-22T23:13:48.157Z,4.81
2023-04-22T23:16:16.514Z,4.71
2023-04-22T23:18:45.426Z,5.00
2023-04-22T23:21:16.091Z,5.35
2023-04-22T23:23:44.795Z,4.98
2023-04-22T23:26:13.329Z,4.74
2023-04-22T23:28:41.760Z,4.59
2023-04-22T23:31:11.384Z,4.54
2023-04-22T23:33:42.262Z,4.47
2023-04-22T23:36:11.363Z,4.34
2023-04-22T23:38:41.048Z,4.08
2023-04-22T23:41:08.951Z,4.32
2023-04-22T23:43:37.029Z,4.31
2023-04-22T23:46:05.178Z,4.23
2023-04-22T23:48:33.322Z,4.07
2023-04-22T23:51:01.542Z,4.07
2023-04-22T23:53:29.546Z,4.19
2023-04-22T23:55:59.633Z,4.20
2023-04-22T23:58:27.995Z,4.22
